Keflavikurflugvollur, Iceland
Current Conditions -  °F | °C
As of 6:00 AM on Thursday 29 Jan 2015 (Local Time) from BIKF Reporting Station
Clear Clear  
Wind Chill: 24°   Ceiling: Unl
Heat Index: 36°   Visibility: 6mi
Dew Point: 30°   Wind: 23mph
Humidity: 81%   Direction: 20°NNE
Pressure: 29.26"   Gusts: NA
Location:  63.97°N, 22.6°W
Report Text: BIKF 290600Z 02020KT CAVOK 02/M01 Q0991 R02/390043
Loading
Personal Weather Stations






























Interactive Weather Map New forecast layout! Learn more

10-Day Weather Forecast

Advertisements
Track Severe Weather on mobile